sensor_id;sensor_type;location;lat;lon;timestamp;pressure;altitude;pressure_sealevel;temperature;humidity
25560;BME280;13450;49.374;8.584;2023-04-29T00:00:25;100214.16;;;11.42;100.00
25560;BME280;13450;49.374;8.584;2023-04-29T00:02:51;100216.66;;;11.44;100.00
25560;BME280;13450;49.374;8.584;2023-04-29T00:05:17;100214.16;;;11.42;100.00
25560;BME280;13450;49.374;8.584;2023-04-29T00:07:42;100210.50;;;11.50;100.00
25560;BME280;13450;49.374;8.584;2023-04-29T00:10:07;100221.69;;;11.54;100.00
25560;BME280;13450;49.374;8.584;2023-04-29T00:12:33;100222.94;;;11.58;100.00
25560;BME280;13450;49.374;8.584;2023-04-29T00:14:58;100222.94;;;11.58;100.00
25560;BME280;13450;49.374;8.584;2023-04-29T00:17:25;100223.38;;;11.61;100.00
25560;BME280;13450;49.374;8.584;2023-04-29T00:19:53;100218.44;;;11.65;100.00
25560;BME280;13450;49.374;8.584;2023-04-29T00:22:18;100225.47;;;11.73;100.00
25560;BME280;13450;49.374;8.584;2023-04-29T00:24:46;100220.75;;;11.75;100.00
25560;BME280;13450;49.374;8.584;2023-04-29T00:27:11;100213.13;;;11.78;100.00
25560;BME280;13450;49.374;8.584;2023-04-29T00:29:36;100209.03;;;11.83;100.00
25560;BME280;13450;49.374;8.584;2023-04-29T00:32:02;100214.81;;;11.86;100.00
25560;BME280;13450;49.374;8.584;2023-04-29T00:34:29;100213.63;;;11.89;100.00
25560;BME280;13450;49.374;8.584;2023-04-29T00:36:54;100217.31;;;11.88;100.00
25560;BME280;13450;49.374;8.584;2023-04-29T00:39:20;100214.81;;;11.86;100.00
25560;BME280;13450;49.374;8.584;2023-04-29T00:41:45;100237.34;;;11.92;100.00
25560;BME280;13450;49.374;8.584;2023-04-29T00:44:10;100225.16;;;11.89;100.00
25560;BME280;13450;49.374;8.584;2023-04-29T00:46:36;100226.00;;;11.90;100.00
25560;BME280;13450;49.374;8.584;2023-04-29T00:49:02;100216.06;;;11.90;100.00
25560;BME280;13450;49.374;8.584;2023-04-29T00:51:28;100228.91;;;11.95;100.00
25560;BME280;13450;49.374;8.584;2023-04-29T00:53:57;100230.50;;;11.89;100.00
25560;BME280;13450;49.374;8.584;2023-04-29T00:56:22;100227.06;;;11.96;100.00
25560;BME280;13450;49.374;8.584;2023-04-29T00:58:49;100222.31;;;11.98;100.00
25560;BME280;13450;49.374;8.584;2023-04-29T01:01:16;100235.53;;;11.99;100.00
25560;BME280;13450;49.374;8.584;2023-04-29T01:03:41;100231.41;;;12.03;100.00
25560;BME280;13450;49.374;8.584;2023-04-29T01:06:25;100230.97;;;12.00;100.00
25560;BME280;13450;49.374;8.584;2023-04-29T01:11:44;100238.25;;;12.06;100.00
25560;BME280;13450;49.374;8.584;2023-04-29T01:14:14;100242.59;;;12.07;100.00
25560;BME280;13450;49.374;8.584;2023-04-29T01:16:44;100237.59;;;12.04;100.00
25560;BME280;13450;49.374;8.584;2023-04-29T01:19:46;100238.81;;;12.01;100.00
25560;BME280;13450;49.374;8.584;2023-04-29T01:22:12;100232.41;;;11.96;100.00
25560;BME280;13450;49.374;8.584;2023-04-29T01:24:46;100225.53;;;11.86;100.00
25560;BME280;13450;49.374;8.584;2023-04-29T01:29:50;100232.09;;;11.77;100.00
25560;BME280;13450;49.374;8.584;2023-04-29T01:32:24;100237.69;;;11.75;100.00
25560;BME280;13450;49.374;8.584;2023-04-29T01:37:56;100241.13;;;11.69;100.00
25560;BME280;13450;49.374;8.584;2023-04-29T01:40:33;100241.97;;;11.70;100.00
25560;BME280;13450;49.374;8.584;2023-04-29T01:43:02;100235.97;;;11.68;100.00
25560;BME280;13450;49.374;8.584;2023-04-29T01:45:34;100232.47;;;11.67;100.00
25560;BME280;13450;49.374;8.584;2023-04-29T01:48:02;100237.41;;;11.70;100.00
25560;BME280;13450;49.374;8.584;2023-04-29T01:50:28;100237.66;;;11.69;100.00
25560;BME280;13450;49.374;8.584;2023-04-29T01:52:54;100238.44;;;11.69;100.00
25560;BME280;13450;49.374;8.584;2023-04-29T01:55:19;100245.03;;;11.67;100.00
25560;BME280;13450;49.374;8.584;2023-04-29T01:57:45;100232.88;;;11.64;100.00
25560;BME280;13450;49.374;8.584;2023-04-29T02:00:11;100254.72;;;11.68;100.00
25560;BME280;13450;49.374;8.584;2023-04-29T02:02:38;100259.69;;;11.71;100.00
25560;BME280;13450;49.374;8.584;2023-04-29T02:05:05;100255.75;;;11.67;100.00
25560;BME280;13450;49.374;8.584;2023-04-29T02:07:30;100253.06;;;11.67;100.00
25560;BME280;13450;49.374;8.584;2023-04-29T02:09:55;100247.09;;;11.64;100.00
25560;BME280;13450;49.374;8.584;2023-04-29T02:12:21;100249.78;;;11.64;100.00
25560;BME280;13450;49.374;8.584;2023-04-29T02:14:46;100243.38;;;11.66;100.00
25560;BME280;13450;49.374;8.584;2023-04-29T02:17:14;100249.38;;;11.68;100.00
25560;BME280;13450;49.374;8.584;2023-04-29T02:19:39;100256.41;;;11.69;100.00
25560;BME280;13450;49.374;8.584;2023-04-29T02:22:07;100251.25;;;11.67;100.00
25560;BME280;13450;49.374;8.584;2023-04-29T02:24:35;100263.00;;;11.73;100.00
25560;BME280;13450;49.374;8.584;2023-04-29T02:27:03;100265.69;;;11.73;100.00
25560;BME280;13450;49.374;8.584;2023-04-29T02:29:30;100269.63;;;11.77;100.00
25560;BME280;13450;49.374;8.584;2023-04-29T02:31:56;100277.06;;;11.75;100.00
25560;BME280;13450;49.374;8.584;2023-04-29T02:34:21;100285.09;;;11.75;100.00
25560;BME280;13450;49.374;8.584;2023-04-29T02:36:48;100277.44;;;11.72;100.00
25560;BME280;13450;49.374;8.584;2023-04-29T02:39:13;100292.25;;;11.68;100.00
25560;BME280;13450;49.374;8.584;2023-04-29T02:41:38;100292.00;;;11.62;100.00
25560;BME280;13450;49.374;8.584;2023-04-29T02:44:04;100296.75;;;11.60;100.00
25560;BME280;13450;49.374;8.584;2023-04-29T02:46:29;100289.72;;;11.59;100.00
25560;BME280;13450;49.374;8.584;2023-04-29T02:48:58;100294.69;;;11.62;100.00
25560;BME280;13450;49.374;8.584;2023-04-29T02:51:23;100293.66;;;11.63;100.00
25560;BME280;13450;49.374;8.584;2023-04-29T02:53:48;100289.97;;;11.64;100.00
25560;BME280;13450;49.374;8.584;2023-04-29T02:56:14;100295.97;;;11.67;100.00
25560;BME280;13450;49.374;8.584;2023-04-29T02:58:39;100296.81;;;11.67;100.00
25560;BME280;13450;49.374;8.584;2023-04-29T03:01:06;100298.03;;;11.64;100.00
25560;BME280;13450;49.374;8.584;2023-04-29T03:03:31;100290.78;;;11.65;100.00
25560;BME280;13450;49.374;8.584;2023-04-29T03:05:56;100280.91;;;11.66;100.00
25560;BME280;13450;49.374;8.584;2023-04-29T03:08:22;100285.25;;;11.67;100.00
25560;BME280;13450;49.374;8.584;2023-04-29T03:10:47;100289.16;;;11.64;100.00
25560;BME280;13450;49.374;8.584;2023-04-29T03:13:12;100284.34;;;11.59;100.00
25560;BME280;13450;49.374;8.584;2023-04-29T03:15:40;100284.34;;;11.59;100.00
25560;BME280;13450;49.374;8.584;2023-04-29T03:18:05;100286.41;;;11.57;100.00
25560;BME280;13450;49.374;8.584;2023-04-29T03:20:30;100291.78;;;11.57;100.00
25560;BME280;13450;49.374;8.584;2023-04-29T03:22:59;100288.47;;;11.55;100.00
25560;BME280;13450;49.374;8.584;2023-04-29T03:25:25;100288.47;;;11.55;100.00
25560;BME280;13450;49.374;8.584;2023-04-29T03:27:50;100284.97;;;11.55;100.00
25560;BME280;13450;49.374;8.584;2023-04-29T03:30:15;100277.75;;;11.55;100.00
25560;BME280;13450;49.374;8.584;2023-04-29T03:32:41;100273.59;;;11.52;100.00
25560;BME280;13450;49.374;8.584;2023-04-29T03:35:07;100278.72;;;11.47;100.00
25560;BME280;13450;49.374;8.584;2023-04-29T03:37:32;100278.47;;;11.42;100.00
25560;BME280;13450;49.374;8.584;2023-04-29T03:39:58;100273.72;;;11.37;100.00
25560;BME280;13450;49.374;8.584;2023-04-29T03:42:23;100275.13;;;11.33;100.00
25560;BME280;13450;49.374;8.584;2023-04-29T03:44:51;100280.84;;;11.30;100.00
25560;BME280;13450;49.374;8.584;2023-04-29T03:47:21;100275.50;;;11.30;100.00
25560;BME280;13450;49.374;8.584;2023-04-29T03:49:48;100282.06;;;11.28;100.00
25560;BME280;13450;49.374;8.584;2023-04-29T03:52:16;100283.47;;;11.23;100.00
25560;BME280;13450;49.374;8.584;2023-04-29T03:54:41;100284.88;;;11.19;100.00
25560;BME280;13450;49.374;8.584;2023-04-29T03:57:07;100292.50;;;11.16;100.00
25560;BME280;13450;49.374;8.584;2023-04-29T03:59:32;100289.63;;;11.17;100.00
25560;BME280;13450;49.374;8.584;2023-04-29T04:01:57;100299.25;;;11.11;100.00
25560;BME280;13450;49.374;8.584;2023-04-29T04:04:23;100300.59;;;11.01;100.00
25560;BME280;13450;49.374;8.584;2023-04-29T04:06:48;100311.22;;;10.94;100.00
25560;BME280;13450;49.374;8.584;2023-04-29T04:09:18;100310.56;;;10.92;100.00
25560;BME280;13450;49.374;8.584;2023-04-29T04:11:46;100323.34;;;10.90;100.00
25560;BME280;13450;49.374;8.584;2023-04-29T04:14:14;100321.69;;;10.89;100.00
25560;BME280;13450;49.374;8.584;2023-04-29T04:16:39;100314.28;;;10.91;100.00
25560;BME280;13450;49.374;8.584;2023-04-29T04:19:05;100315.94;;;10.92;100.00
25560;BME280;13450;49.374;8.584;2023-04-29T04:21:30;100325.00;;;10.91;100.00
25560;BME280;13450;49.374;8.584;2023-04-29T04:23:58;100324.38;;;10.89;100.00
25560;BME280;13450;49.374;8.584;2023-04-29T04:26:26;100335.69;;;10.91;100.00
25560;BME280;13450;49.374;8.584;2023-04-29T04:28:51;100334.03;;;10.90;100.00
25560;BME280;13450;49.374;8.584;2023-04-29T04:31:16;100334.03;;;10.90;100.00
25560;BME280;13450;49.374;8.584;2023-04-29T04:33:41;100336.16;;;10.94;100.00
25560;BME280;13450;49.374;8.584;2023-04-29T04:36:07;100333.28;;;10.96;100.00
25560;BME280;13450;49.374;8.584;2023-04-29T04:38:33;100339.91;;;11.00;100.00
25560;BME280;13450;49.374;8.584;2023-04-29T04:40:58;100347.81;;;11.08;100.00
25560;BME280;13450;49.374;8.584;2023-04-29T04:43:25;100351.59;;;11.14;100.00
25560;BME280;13450;49.374;8.584;2023-04-29T04:45:51;100346.69;;;11.18;100.00
25560;BME280;13450;49.374;8.584;2023-04-29T04:48:18;100353.31;;;11.22;100.00
25560;BME280;13450;49.374;8.584;2023-04-29T04:50:43;100363.66;;;11.25;100.00
25560;BME280;13450;49.374;8.584;2023-04-29T04:53:09;100359.94;;;11.26;100.00
25560;BME280;13450;49.374;8.584;2023-04-29T04:55:34;100364.94;;;11.29;100.00
25560;BME280;13450;49.374;8.584;2023-04-29T04:58:00;100375.47;;;11.31;100.00
25560;BME280;13450;49.374;8.584;2023-04-29T05:00:25;100371.16;;;11.36;100.00
25560;BME280;13450;49.374;8.584;2023-04-29T05:02:51;100383.16;;;11.41;100.00
25560;BME280;13450;49.374;8.584;2023-04-29T05:05:16;100385.69;;;11.49;100.00
25560;BME280;13450;49.374;8.584;2023-04-29T05:07:41;100396.03;;;11.52;100.00
25560;BME280;13450;49.374;8.584;2023-04-29T05:10:08;100395.66;;;11.55;100.00
25560;BME280;13450;49.374;8.584;2023-04-29T05:12:33;100396.09;;;11.59;100.00
25560;BME280;13450;49.374;8.584;2023-04-29T05:14:59;100403.06;;;11.53;100.00
25560;BME280;13450;49.374;8.584;2023-04-29T05:17:27;100395.63;;;11.48;100.00
25560;BME280;13450;49.374;8.584;2023-04-29T05:19:52;100394.00;;;11.54;100.00
25560;BME280;13450;49.374;8.584;2023-04-29T05:22:18;100399.34;;;11.54;100.00
25560;BME280;13450;49.374;8.584;2023-04-29T05:24:43;100404.34;;;11.57;100.00
25560;BME280;13450;49.374;8.584;2023-04-29T05:27:08;100401.91;;;11.62;100.00
25560;BME280;13450;49.374;8.584;2023-04-29T05:29:34;100405.22;;;11.64;100.00
25560;BME280;13450;49.374;8.584;2023-04-29T05:31:59;100406.03;;;11.65;100.00
25560;BME280;13450;49.374;8.584;2023-04-29T05:34:24;100397.19;;;11.64;100.00
25560;BME280;13450;49.374;8.584;2023-04-29T05:36:50;100406.88;;;11.66;100.00
25560;BME280;13450;49.374;8.584;2023-04-29T05:39:15;100411.88;;;11.69;100.00
25560;BME280;13450;49.374;8.584;2023-04-29T05:41:42;100423.22;;;11.71;100.00
25560;BME280;13450;49.374;8.584;2023-04-29T05:44:07;100423.41;;;11.69;100.00
25560;BME280;13450;49.374;8.584;2023-04-29T05:46:32;100425.09;;;11.77;100.00
25560;BME280;13450;49.374;8.584;2023-04-29T05:48:57;100428.00;;;11.75;100.00
25560;BME280;13450;49.374;8.584;2023-04-29T05:51:23;100431.78;;;11.88;100.00
25560;BME280;13450;49.374;8.584;2023-04-29T05:53:55;100435.56;;;11.94;100.00
25560;BME280;13450;49.374;8.584;2023-04-29T05:56:20;100433.84;;;11.86;100.00
25560;BME280;13450;49.374;8.584;2023-04-29T05:58:49;100440.53;;;11.97;100.00
25560;BME280;13450;49.374;8.584;2023-04-29T06:01:15;100443.28;;;12.03;100.00
25560;BME280;13450;49.374;8.584;2023-04-29T06:03:41;100445.63;;;12.13;100.00
25560;BME280;13450;49.374;8.584;2023-04-29T06:06:07;100437.59;;;12.13;100.00
25560;BME280;13450;49.374;8.584;2023-04-29T06:08:32;100439.13;;;12.23;100.00
25560;BME280;13450;49.374;8.584;2023-04-29T06:10:58;100440.34;;;12.27;100.00
25560;BME280;13450;49.374;8.584;2023-04-29T06:13:23;100435.31;;;12.39;100.00
25560;BME280;13450;49.374;8.584;2023-04-29T06:15:51;100445.03;;;12.47;100.00
25560;BME280;13450;49.374;8.584;2023-04-29T06:18:19;100446.50;;;12.49;100.00
25560;BME280;13450;49.374;8.584;2023-04-29T06:20:44;100451.72;;;12.58;100.00
25560;BME280;13450;49.374;8.584;2023-04-29T06:23:10;100458.75;;;12.65;100.00
25560;BME280;13450;49.374;8.584;2023-04-29T06:25:36;100453.41;;;12.65;100.00
25560;BME280;13450;49.374;8.584;2023-04-29T06:28:06;100451.66;;;12.51;100.00
25560;BME280;13450;49.374;8.584;2023-04-29T06:30:35;100457.88;;;12.58;100.00
25560;BME280;13450;49.374;8.584;2023-04-29T06:33:00;100455.00;;;12.60;100.00
25560;BME280;13450;49.374;8.584;2023-04-29T06:35:25;100460.78;;;12.57;100.00
25560;BME280;13450;49.374;8.584;2023-04-29T06:37:51;100466.97;;;12.57;100.00
25560;BME280;13450;49.374;8.584;2023-04-29T06:40:17;100469.81;;;12.49;100.00
25560;BME280;13450;49.374;8.584;2023-04-29T06:42:42;100475.81;;;12.51;100.00
25560;BME280;13450;49.374;8.584;2023-04-29T06:45:10;100471.88;;;12.47;100.00
25560;BME280;13450;49.374;8.584;2023-04-29T06:47:36;100478.97;;;12.61;100.00
25560;BME280;13450;49.374;8.584;2023-04-29T06:50:01;100478.19;;;12.67;100.00
25560;BME280;13450;49.374;8.584;2023-04-29T06:52:26;100484.56;;;12.66;100.00
25560;BME280;13450;49.374;8.584;2023-04-29T06:54:52;100484.66;;;12.80;100.00
25560;BME280;13450;49.374;8.584;2023-04-29T06:57:17;100470.25;;;12.94;100.00
25560;BME280;13450;49.374;8.584;2023-04-29T06:59:42;100470.66;;;12.91;100.00
25560;BME280;13450;49.374;8.584;2023-04-29T07:02:08;100470.47;;;12.93;100.00
25560;BME280;13450;49.374;8.584;2023-04-29T07:04:33;100460.16;;;12.97;100.00
25560;BME280;13450;49.374;8.584;2023-04-29T07:07:01;100452.28;;;12.95;100.00
25560;BME280;13450;49.374;8.584;2023-04-29T07:09:26;100472.94;;;12.94;100.00
25560;BME280;13450;49.374;8.584;2023-04-29T07:11:52;100470.28;;;13.01;100.00
25560;BME280;13450;49.374;8.584;2023-04-29T07:14:17;100486.19;;;13.03;100.00
25560;BME280;13450;49.374;8.584;2023-04-29T07:16:43;100480.81;;;13.03;100.00
25560;BME280;13450;49.374;8.584;2023-04-29T07:19:13;100487.66;;;13.05;100.00
25560;BME280;13450;49.374;8.584;2023-04-29T07:21:38;100491.56;;;13.03;100.00
25560;BME280;13450;49.374;8.584;2023-04-29T07:24:03;100485.38;;;13.02;100.00
25560;BME280;13450;49.374;8.584;2023-04-29T07:26:29;100485.75;;;12.92;100.00
25560;BME280;13450;49.374;8.584;2023-04-29T07:28:54;100484.50;;;12.88;100.00
25560;BME280;13450;49.374;8.584;2023-04-29T07:31:20;100483.38;;;12.76;100.00
25560;BME280;13450;49.374;8.584;2023-04-29T07:33:45;100491.38;;;12.62;100.00
25560;BME280;13450;49.374;8.584;2023-04-29T07:36:14;100488.63;;;12.55;100.00
25560;BME280;13450;49.374;8.584;2023-04-29T07:38:39;100502.22;;;12.47;100.00
25560;BME280;13450;49.374;8.584;2023-04-29T07:41:06;100500.75;;;12.45;100.00
25560;BME280;13450;49.374;8.584;2023-04-29T07:43:34;100503.19;;;12.39;100.00
25560;BME280;13450;49.374;8.584;2023-04-29T07:46:00;100512.66;;;12.35;100.00
25560;BME280;13450;49.374;8.584;2023-04-29T07:48:25;100509.78;;;12.37;100.00
25560;BME280;13450;49.374;8.584;2023-04-29T07:50:51;100506.88;;;12.32;100.00
25560;BME280;13450;49.374;8.584;2023-04-29T07:53:16;100521.31;;;12.31;100.00
25560;BME280;13450;49.374;8.584;2023-04-29T07:55:42;100515.47;;;12.27;100.00
25560;BME280;13450;49.374;8.584;2023-04-29T07:58:07;100522.53;;;12.28;100.00
25560;BME280;13450;49.374;8.584;2023-04-29T08:00:33;100525.59;;;12.25;100.00
25560;BME280;13450;49.374;8.584;2023-04-29T08:02:58;100532.22;;;12.29;100.00
25560;BME280;13450;49.374;8.584;2023-04-29T08:05:28;100534.13;;;12.35;100.00
25560;BME280;13450;49.374;8.584;2023-04-29T08:07:57;100531.31;;;12.43;100.00
25560;BME280;13450;49.374;8.584;2023-04-29T08:10:22;100538.59;;;12.50;100.00
25560;BME280;13450;49.374;8.584;2023-04-29T08:12:48;100535.09;;;12.56;100.00
25560;BME280;13450;49.374;8.584;2023-04-29T08:15:13;100537.00;;;12.62;100.00
25560;BME280;13450;49.374;8.584;2023-04-29T08:17:38;100533.56;;;12.68;100.00
25560;BME280;13450;49.374;8.584;2023-04-29T08:20:04;100533.16;;;12.78;100.00
25560;BME280;13450;49.374;8.584;2023-04-29T08:22:31;100541.91;;;12.87;100.00
25560;BME280;13450;49.374;8.584;2023-04-29T08:24:56;100548.41;;;13.00;100.00
25560;BME280;13450;49.374;8.584;2023-04-29T08:27:22;100543.09;;;13.13;100.00
25560;BME280;13450;49.374;8.584;2023-04-29T08:29:47;100549.13;;;13.29;100.00
25560;BME280;13450;49.374;8.584;2023-04-29T08:32:12;100543.38;;;13.32;100.00
25560;BME280;13450;49.374;8.584;2023-04-29T08:34:39;100541.38;;;13.47;100.00
25560;BME280;13450;49.374;8.584;2023-04-29T08:37:08;100546.34;;;13.51;100.00
25560;BME280;13450;49.374;8.584;2023-04-29T08:39:33;100550.91;;;13.57;100.00
25560;BME280;13450;49.374;8.584;2023-04-29T08:41:58;100549.47;;;13.54;100.00
25560;BME280;13450;49.374;8.584;2023-04-29T08:44:27;100555.06;;;13.59;100.00
25560;BME280;13450;49.374;8.584;2023-04-29T08:46:54;100554.06;;;13.67;100.00
25560;BME280;13450;49.374;8.584;2023-04-29T08:49:20;100549.28;;;13.69;100.00
25560;BME280;13450;49.374;8.584;2023-04-29T08:51:48;100547.66;;;13.75;100.00
25560;BME280;13450;49.374;8.584;2023-04-29T08:54:15;100548.47;;;13.76;100.00
25560;BME280;13450;49.374;8.584;2023-04-29T08:56:44;100554.31;;;13.93;100.00
25560;BME280;13450;49.374;8.584;2023-04-29T08:59:10;100564.03;;;14.01;100.00
25560;BME280;13450;49.374;8.584;2023-04-29T09:01:39;100555.56;;;14.04;100.00
25560;BME280;13450;49.374;8.584;2023-04-29T09:06:32;100566.75;;;14.01;100.00
25560;BME280;13450;49.374;8.584;2023-04-29T09:08:58;100572.53;;;14.11;100.00
25560;BME280;13450;49.374;8.584;2023-04-29T09:11:26;100566.34;;;14.04;100.00
25560;BME280;13450;49.374;8.584;2023-04-29T09:13:58;100575.84;;;14.06;100.00
25560;BME280;13450;49.374;8.584;2023-04-29T09:16:23;100577.91;;;14.11;100.00
25560;BME280;13450;49.374;8.584;2023-04-29T09:18:50;100583.50;;;14.16;100.00
25560;BME280;13450;49.374;8.584;2023-04-29T09:21:23;100575.69;;;14.28;100.00
25560;BME280;13450;49.374;8.584;2023-04-29T09:23:54;100582.06;;;14.47;100.00
25560;BME280;13450;49.374;8.584;2023-04-29T09:26:20;100584.13;;;14.72;100.00
25560;BME280;13450;49.374;8.584;2023-04-29T09:28:46;100577.91;;;14.92;100.00
25560;BME280;13450;49.374;8.584;2023-04-29T09:31:26;100579.97;;;15.03;100.00
25560;BME280;13450;49.374;8.584;2023-04-29T09:33:53;100578.22;;;15.29;100.00
25560;BME280;13450;49.374;8.584;2023-04-29T09:36:44;100584.34;;;15.50;100.00
25560;BME280;13450;49.374;8.584;2023-04-29T09:39:15;100582.63;;;15.63;100.00
25560;BME280;13450;49.374;8.584;2023-04-29T09:44:26;100588.44;;;15.60;100.00
25560;BME280;13450;49.374;8.584;2023-04-29T09:47:09;100585.59;;;15.48;100.00
25560;BME280;13450;49.374;8.584;2023-04-29T09:49:40;100586.41;;;15.55;100.00
25560;BME280;13450;49.374;8.584;2023-04-29T09:52:08;100588.97;;;15.43;100.00
25560;BME280;13450;49.374;8.584;2023-04-29T09:54:35;100587.91;;;15.44;100.00
25560;BME280;13450;49.374;8.584;2023-04-29T09:57:02;100594.72;;;15.53;100.00
25560;BME280;13450;49.374;8.584;2023-04-29T09:59:31;100591.78;;;15.62;100.00
25560;BME280;13450;49.374;8.584;2023-04-29T10:02:00;100601.97;;;15.92;100.00
25560;BME280;13450;49.374;8.584;2023-04-29T10:04:29;100602.38;;;16.02;100.00
25560;BME280;13450;49.374;8.584;2023-04-29T10:07:00;100593.56;;;16.14;100.00
25560;BME280;13450;49.374;8.584;2023-04-29T10:09:26;100589.66;;;16.10;100.00
25560;BME280;13450;49.374;8.584;2023-04-29T10:11:53;100589.75;;;16.21;100.00
25560;BME280;13450;49.374;8.584;2023-04-29T10:14:24;100592.03;;;16.50;100.00
25560;BME280;13450;49.374;8.584;2023-04-29T10:17:02;100592.53;;;16.66;100.00
25560;BME280;13450;49.374;8.584;2023-04-29T10:19:47;100589.47;;;17.06;100.00
25560;BME280;13450;49.374;8.584;2023-04-29T10:22:23;100596.19;;;16.97;100.00
25560;BME280;13450;49.374;8.584;2023-04-29T10:24:50;100596.06;;;17.29;100.00
25560;BME280;13450;49.374;8.584;2023-04-29T10:27:18;100586.41;;;17.52;100.00
25560;BME280;13450;49.374;8.584;2023-04-29T10:29:45;100589.81;;;17.78;100.00
25560;BME280;13450;49.374;8.584;2023-04-29T10:32:13;100589.16;;;18.25;100.00
25560;BME280;13450;49.374;8.584;2023-04-29T10:34:42;100594.84;;;18.95;100.00
25560;BME280;13450;49.374;8.584;2023-04-29T10:37:11;100595.19;;;19.11;96.93
25560;BME280;13450;49.374;8.584;2023-04-29T10:39:45;100598.72;;;19.12;93.58
25560;BME280;13450;49.374;8.584;2023-04-29T10:53:14;100596.81;;;19.00;94.43
25560;BME280;13450;49.374;8.584;2023-04-29T10:55:40;100597.56;;;19.48;90.42
25560;BME280;13450;49.374;8.584;2023-04-29T11:01:04;100592.47;;;19.81;85.48
25560;BME280;13450;49.374;8.584;2023-04-29T11:06:23;100598.06;;;20.38;81.47
25560;BME280;13450;49.374;8.584;2023-04-29T11:09:02;100607.81;;;19.88;81.20
25560;BME280;13450;49.374;8.584;2023-04-29T11:14:48;100591.53;;;18.69;100.00
25560;BME280;13450;49.374;8.584;2023-04-29T11:17:17;100588.56;;;18.47;94.79
25560;BME280;13450;49.374;8.584;2023-04-29T11:19:50;100588.22;;;18.32;99.72
25560;BME280;13450;49.374;8.584;2023-04-29T11:27:31;100581.72;;;17.78;99.48
25560;BME280;13450;49.374;8.584;2023-04-29T11:29:58;100588.91;;;17.84;100.00
25560;BME280;13450;49.374;8.584;2023-04-29T11:32:30;100588.09;;;18.38;98.91
25560;BME280;13450;49.374;8.584;2023-04-29T11:35:16;100590.56;;;19.53;87.38
25560;BME280;13450;49.374;8.584;2023-04-29T11:37:44;100579.50;;;20.69;79.61
25560;BME280;13450;49.374;8.584;2023-04-29T11:40:10;100589.97;;;21.17;83.60
25560;BME280;13450;49.374;8.584;2023-04-29T11:42:44;100587.69;;;21.09;67.89
25560;BME280;13450;49.374;8.584;2023-04-29T11:45:10;100592.69;;;21.17;70.22
25560;BME280;13450;49.374;8.584;2023-04-29T11:47:36;100588.34;;;21.16;69.42
25560;BME280;13450;49.374;8.584;2023-04-29T11:50:06;100598.34;;;20.54;70.61
25560;BME280;13450;49.374;8.584;2023-04-29T11:52:36;100593.78;;;20.42;73.94
25560;BME280;13450;49.374;8.584;2023-04-29T11:55:08;100595.19;;;20.28;76.14
25560;BME280;13450;49.374;8.584;2023-04-29T11:57:33;100598.16;;;20.09;83.08
25560;BME280;13450;49.374;8.584;2023-04-29T11:59:59;100607.78;;;19.29;86.03
25560;BME280;13450;49.374;8.584;2023-04-29T12:02:29;100601.56;;;19.05;96.39
25560;BME280;13450;49.374;8.584;2023-04-29T12:04:54;100614.97;;;18.52;99.50
25560;BME280;13450;49.374;8.584;2023-04-29T12:07:21;100610.97;;;18.42;96.53
25560;BME280;13450;49.374;8.584;2023-04-29T12:09:46;100610.31;;;18.16;99.55
25560;BME280;13450;49.374;8.584;2023-04-29T12:12:13;100608.13;;;18.25;100.00
25560;BME280;13450;49.374;8.584;2023-04-29T12:14:39;100617.53;;;18.23;100.00
25560;BME280;13450;49.374;8.584;2023-04-29T12:17:06;100615.97;;;17.84;100.00
25560;BME280;13450;49.374;8.584;2023-04-29T12:19:32;100608.56;;;18.10;100.00
25560;BME280;13450;49.374;8.584;2023-04-29T12:21:58;100611.63;;;18.26;100.00
25560;BME280;13450;49.374;8.584;2023-04-29T12:24:26;100612.50;;;17.77;100.00
25560;BME280;13450;49.374;8.584;2023-04-29T12:26:54;100612.06;;;17.80;100.00
25560;BME280;13450;49.374;8.584;2023-04-29T12:29:25;100612.19;;;17.85;100.00
25560;BME280;13450;49.374;8.584;2023-04-29T12:31:50;100629.00;;;17.75;100.00
25560;BME280;13450;49.374;8.584;2023-04-29T12:34:15;100621.31;;;18.03;100.00
25560;BME280;13450;49.374;8.584;2023-04-29T12:36:43;100616.72;;;17.91;100.00
25560;BME280;13450;49.374;8.584;2023-04-29T12:39:09;100620.28;;;17.73;100.00
25560;BME280;13450;49.374;8.584;2023-04-29T12:41:41;100620.19;;;17.80;100.00
25560;BME280;13450;49.374;8.584;2023-04-29T12:44:09;100612.38;;;17.72;100.00
25560;BME280;13450;49.374;8.584;2023-04-29T12:46:39;100622.09;;;17.61;100.00
25560;BME280;13450;49.374;8.584;2023-04-29T12:49:06;100630.16;;;17.49;100.00
25560;BME280;13450;49.374;8.584;2023-04-29T12:51:32;100628.78;;;17.58;100.00
25560;BME280;13450;49.374;8.584;2023-04-29T12:53:59;100634.09;;;17.65;100.00
25560;BME280;13450;49.374;8.584;2023-04-29T12:56:28;100629.25;;;17.55;100.00
25560;BME280;13450;49.374;8.584;2023-04-29T12:58:53;100626.47;;;17.43;100.00
25560;BME280;13450;49.374;8.584;2023-04-29T13:01:19;100623.09;;;17.48;100.00
25560;BME280;13450;49.374;8.584;2023-04-29T13:03:46;100629.25;;;17.55;100.00
25560;BME280;13450;49.374;8.584;2023-04-29T13:06:13;100627.31;;;17.74;100.00
25560;BME280;13450;49.374;8.584;2023-04-29T13:08:38;100625.50;;;17.87;99.54
25560;BME280;13450;49.374;8.584;2023-04-29T13:11:04;100628.44;;;17.85;96.59
25560;BME280;13450;49.374;8.584;2023-04-29T13:13:32;100635.50;;;17.86;100.00
25560;BME280;13450;49.374;8.584;2023-04-29T13:15:57;100630.16;;;17.49;98.43
25560;BME280;13450;49.374;8.584;2023-04-29T13:18:22;100632.88;;;17.11;100.00